ěÝzenÝ letovÚho provozu ╚eskÚ republiky
Letiste: LKLN Aktualizace: 07.04.2020 04:25:27  UTC
 METAR LKLN 07.04. 04:30 ...
METAR LKLN 070430Z AUTO VRB01KT CAVOK 02/M01 Q1029=